Accueil
METAR-TAF:

METAR-TAF

Aéroports :

Evanston-Uinta County Airport (Burns Field)

Evanston, Wyoming, États-Unis

latitude: 41-16-23N, longitude: 111-01-50W, altitude: 2183 m

Observation

Le bulletin a été fait il y a 55 minutes, à 20:53 UTC
Température 28°C
Humidité 17%
Pression 1028 hPa
Visibilité: 16.1 km
Ciel clair

METAR: KEVW 172053Z AUTO 10SM CLR 28/01 A3036 RMK AO2 SLP169 T02830006 56010

Heure: 15:48 (21:48 UTC)

Prévision

Le bulletin a été fait il y a 4 heures et 28 minutes, à 17:20 UTC
Prévision valable du 17 à 18 UTC au 18 à 18 UTC
Vent 8 kt de est/nord-est
Visibilité: 10 km
Quelques nuages à une hauteur de 20000 ft
A partir de 18 à 0400 UTC
Vent 6 kt de sud/sud-est
Visibilité: 10 km
Ciel clair
A partir de 18 à 1500 UTC
Vent 7 kt de est
Visibilité: 10 km
Ciel clair

TAF: KEVW 171720Z 1718/1818 07008KT P6SM FEW200 FM180400 15006KT P6SM SKC FM181500 08007KT P6SM SKC

Observations et prévisions météorologiques de plus de 4000 aéroports (messages METAR et TAF).

Les stations disponibles sont représentées par des disques jaunes et rouges sur la carte.

Passer la souris dessus pour voir le nom de la station.

Cliquer dessus pour voir les observations et prévisions météorologiques.

Pour changer de carte: cliquez sur les boutons verts avec une croix noire pour zoomer, sur le bouton vert avec un tiret pour effectuer un zoom arrière, ou sur les flèches vertes pour les cartes adjacentes.


METAR-TAF: